Time;durP1;ratioP1;P1;durP2;ratioP2;P2;SDS_P1;SDS_P2;PMS_P1;PMS_P2;Temp;Humidity;BMP_temperature;BMP_pressure;BME280_temperature;BME280_humidity;BME280_pressure;Samples;Min_cycle;Max_cycle;Signal;HPM_P1;HPM_P2
2021/12/26 00:00:27;;;;;;;7.18;1.92;;;-5.40;99.90;;;;;;4941014;28;20040;-86
2021/12/26 00:02:53;;;;;;;6.60;2.42;;;-5.40;99.90;;;;;;4918146;28;20043;-86
2021/12/26 00:05:19;;;;;;;4.35;1.70;;;-5.40;99.90;;;;;;4932195;28;20102;-86
2021/12/26 00:07:45;;;;;;;3.13;1.30;;;-5.30;99.90;;;;;;4928206;29;20139;-86
2021/12/26 00:10:13;;;;;;;6.47;1.98;;;-5.40;99.90;;;;;;4940243;28;20078;-86
2021/12/26 00:12:38;;;;;;;6.07;1.95;;;-5.40;99.90;;;;;;4927061;28;20353;-86
2021/12/26 00:15:06;;;;;;;4.82;1.58;;;-5.30;99.90;;;;;;4932621;28;20058;-86
2021/12/26 00:17:34;;;;;;;5.18;1.77;;;-5.40;99.90;;;;;;4922251;29;20094;-86
2021/12/26 00:20:00;;;;;;;5.70;1.70;;;-5.40;99.90;;;;;;4935165;28;20038;-86
2021/12/26 00:22:26;;;;;;;4.07;1.70;;;-5.40;99.90;;;;;;4939220;28;20047;-86
2021/12/26 00:24:52;;;;;;;5.97;2.13;;;-5.40;99.90;;;;;;4928554;28;20703;-86
2021/12/26 00:27:19;;;;;;;6.50;2.17;;;-5.40;99.90;;;;;;4934689;28;20107;-87
2021/12/26 00:29:46;;;;;;;5.25;1.65;;;-5.50;99.90;;;;;;4937680;28;20050;-87
2021/12/26 00:32:11;;;;;;;5.90;1.92;;;-5.40;99.90;;;;;;4951641;28;20512;-85
2021/12/26 00:34:37;;;;;;;6.63;1.95;;;-5.40;99.90;;;;;;4954377;28;20043;-86
2021/12/26 00:37:05;;;;;;;4.80;1.70;;;-5.40;99.90;;;;;;4935085;28;20051;-86
2021/12/26 00:39:33;;;;;;;7.47;1.98;;;-5.40;99.90;;;;;;4912343;28;20137;-85
2021/12/26 00:41:58;;;;;;;5.25;1.83;;;-5.40;99.90;;;;;;4932132;28;20070;-85
2021/12/26 00:44:24;;;;;;;4.95;1.83;;;-5.40;99.90;;;;;;4912529;28;20039;-86
2021/12/26 00:46:53;;;;;;;6.60;2.47;;;-5.40;99.90;;;;;;4920595;28;20039;-85
2021/12/26 00:49:20;;;;;;;5.28;1.65;;;-5.50;99.90;;;;;;4923759;28;20088;-85
2021/12/26 00:51:45;;;;;;;5.28;1.90;;;-5.50;99.90;;;;;;4920677;28;20050;-86
2021/12/26 00:54:11;;;;;;;5.63;1.75;;;-5.50;99.90;;;;;;4920317;28;20043;-86
2021/12/26 00:56:37;;;;;;;6.90;2.00;;;-5.50;99.90;;;;;;4921148;28;20043;-85
2021/12/26 00:59:03;;;;;;;5.28;1.65;;;-5.50;99.90;;;;;;4917591;29;20792;-86
2021/12/26 01:01:28;;;;;;;4.95;1.65;;;-5.60;99.90;;;;;;4938201;28;20046;-85
2021/12/26 01:03:54;;;;;;;5.20;1.60;;;-5.60;99.90;;;;;;4930772;28;20424;-86
2021/12/26 01:06:19;;;;;;;3.92;1.40;;;-5.60;99.90;;;;;;4933279;28;20505;-86
2021/12/26 01:08:48;;;;;;;3.08;1.30;;;-5.60;99.90;;;;;;4930847;28;20146;-85
2021/12/26 01:11:31;;;;;;;5.30;1.70;;;-5.60;99.90;;;;;;4924892;28;20062;-86
2021/12/26 01:13:58;;;;;;;3.55;1.60;;;-5.60;99.90;;;;;;4914603;29;20047;-85
2021/12/26 01:16:25;;;;;;;6.25;1.67;;;-5.60;99.90;;;;;;4932495;28;20074;-85
2021/12/26 01:18:51;;;;;;;5.18;1.73;;;-5.60;99.90;;;;;;4920476;28;20046;-86
2021/12/26 01:21:20;;;;;;;4.43;1.70;;;-5.60;99.90;;;;;;4917400;28;20051;-86
2021/12/26 01:23:52;;;;;;;4.50;1.75;;;-5.70;99.90;;;;;;4928872;29;20078;-86
2021/12/26 01:26:19;;;;;;;6.28;1.55;;;-5.70;99.90;;;;;;4936162;28;20074;-86
2021/12/26 01:28:44;;;;;;;4.43;1.35;;;-5.70;99.90;;;;;;4931520;28;20047;-86
2021/12/26 01:31:10;;;;;;;4.35;1.48;;;-5.70;99.90;;;;;;4937178;28;20515;-86
2021/12/26 01:33:36;;;;;;;4.25;1.50;;;-5.60;99.90;;;;;;4938195;29;20058;-86
2021/12/26 01:36:02;;;;;;;4.35;1.58;;;-5.60;99.90;;;;;;4919417;28;20050;-86
2021/12/26 01:38:28;;;;;;;3.92;1.60;;;-5.70;99.90;;;;;;4932326;28;20126;-86
2021/12/26 01:40:56;;;;;;;5.22;1.55;;;-5.60;99.90;;;;;;4933622;28;20150;-86
2021/12/26 01:43:26;;;;;;;3.28;1.35;;;-5.70;99.90;;;;;;4934622;28;20102;-86
2021/12/26 01:45:52;;;;;;;5.32;1.70;;;-5.70;99.90;;;;;;4931607;28;20043;-86
2021/12/26 01:48:20;;;;;;;4.57;1.63;;;-5.70;99.90;;;;;;4929281;28;20047;-86
2021/12/26 01:50:47;;;;;;;6.30;1.70;;;-5.70;99.90;;;;;;4933526;28;20090;-86
2021/12/26 01:53:13;;;;;;;9.30;1.70;;;-5.70;99.90;;;;;;4935277;29;20043;-86
2021/12/26 01:55:46;;;;;;;6.63;1.55;;;-5.70;99.90;;;;;;4923040;28;20136;-86
2021/12/26 01:58:40;;;;;;;7.60;2.30;;;-5.80;99.90;;;;;;4928064;28;20062;-86
2021/12/26 02:01:09;;;;;;;5.25;1.65;;;-5.80;99.90;;;;;;4921383;28;20062;-87
2021/12/26 02:03:36;;;;;;;4.35;1.70;;;-5.80;99.90;;;;;;4917301;28;20416;-87
2021/12/26 02:06:04;;;;;;;5.40;1.40;;;-5.80;99.90;;;;;;4908954;29;20052;-86
2021/12/26 02:08:29;;;;;;;3.45;1.33;;;-5.80;99.90;;;;;;4906554;29;20052;-86
2021/12/26 02:10:59;;;;;;;4.82;1.70;;;-5.80;99.90;;;;;;4901429;29;20062;-86
2021/12/26 02:13:25;;;;;;;5.32;1.58;;;-5.80;99.90;;;;;;4908063;29;20214;-86
2021/12/26 02:15:52;;;;;;;3.85;1.75;;;-5.80;99.90;;;;;;4908628;29;20082;-86
2021/12/26 02:18:17;;;;;;;5.60;1.70;;;-5.80;99.90;;;;;;4888158;29;20054;-86
2021/12/26 02:23:23;;;;;;;5.22;1.65;;;-5.80;99.90;;;;;;4917241;29;20430;-86
2021/12/26 02:28:25;;;;;;;3.80;1.63;;;-5.80;99.90;;;;;;4907487;29;20048;-85
2021/12/26 02:30:54;;;;;;;3.60;1.52;;;-5.90;99.90;;;;;;4894866;29;20047;-86
2021/12/26 02:33:20;;;;;;;4.68;1.40;;;-5.90;99.90;;;;;;4911452;29;20067;-86
2021/12/26 02:35:48;;;;;;;3.80;1.58;;;-5.90;99.90;;;;;;4901107;29;20142;-86
2021/12/26 02:38:15;;;;;;;4.13;1.58;;;-5.90;99.90;;;;;;4902232;29;20071;-86
2021/12/26 02:40:42;;;;;;;7.28;1.75;;;-5.90;99.90;;;;;;4899963;29;20142;-86
2021/12/26 02:43:08;;;;;;;4.55;1.70;;;-5.90;99.90;;;;;;4897778;29;21009;-86
2021/12/26 02:45:35;;;;;;;4.60;1.45;;;-6.00;99.90;;;;;;4893042;29;20130;-87
2021/12/26 02:48:00;;;;;;;5.07;1.92;;;-6.00;99.90;;;;;;4902147;29;20043;-87
2021/12/26 02:50:30;;;;;;;3.72;1.60;;;-6.00;99.90;;;;;;4917981;29;20067;-86
2021/12/26 02:52:59;;;;;;;3.55;1.50;;;-6.00;99.90;;;;;;4919616;29;20074;-86
2021/12/26 02:55:25;;;;;;;4.68;1.48;;;-6.00;99.90;;;;;;4890651;29;20127;-86
2021/12/26 02:57:57;;;;;;;4.15;1.73;;;-6.00;99.90;;;;;;4916348;29;20126;-86
2021/12/26 03:00:28;;;;;;;6.97;1.90;;;-6.00;99.90;;;;;;4911354;29;20045;-86
2021/12/26 03:02:55;;;;;;;;;;;-6.10;99.90;;;;;;4919946;29;20394;-86
2021/12/26 03:05:24;;;;;;;6.03;1.73;;;-6.10;99.90;;;;;;4909062;28;19922;-86
2021/12/26 03:07:50;;;;;;;6.28;2.05;;;-6.10;99.90;;;;;;4933822;28;20183;-86
2021/12/26 03:10:22;;;;;;;5.45;1.80;;;-6.10;99.90;;;;;;4935320;28;20142;-86
2021/12/26 03:12:49;;;;;;;5.03;1.80;;;-6.10;99.90;;;;;;4919649;28;20050;-86
2021/12/26 03:15:14;;;;;;;4.63;1.67;;;-6.10;99.90;;;;;;4914187;28;20047;-86
2021/12/26 03:17:40;;;;;;;4.05;1.67;;;-6.20;99.90;;;;;;4922560;28;20771;-86
2021/12/26 03:20:08;;;;;;;8.52;2.30;;;-6.20;99.90;;;;;;4919940;28;20055;-86
2021/12/26 03:22:34;;;;;;;5.18;1.80;;;-6.20;99.90;;;;;;4922240;28;20488;-86
2021/12/26 03:24:59;;;;;;;5.82;2.47;;;-6.20;99.90;;;;;;4912916;28;20051;-86
2021/12/26 03:27:25;;;;;;;6.13;2.00;;;-6.20;99.90;;;;;;4936872;28;20047;-86
2021/12/26 03:29:51;;;;;;;6.00;2.20;;;-6.20;99.90;;;;;;4931504;28;20109;-85
2021/12/26 03:32:16;;;;;;;5.65;1.83;;;-6.20;99.90;;;;;;4935730;29;20039;-86
2021/12/26 03:34:46;;;;;;;6.28;2.20;;;-6.20;99.90;;;;;;4937549;28;20358;-86
2021/12/26 03:37:12;;;;;;;6.43;2.08;;;-6.20;99.90;;;;;;4938590;28;20050;-85
2021/12/26 03:39:38;;;;;;;6.78;1.92;;;-6.20;99.90;;;;;;4923700;28;20756;-85
2021/12/26 03:42:04;;;;;;;4.95;1.88;;;-6.20;99.90;;;;;;4928501;29;20488;-86
2021/12/26 03:44:29;;;;;;;5.15;1.77;;;-6.20;99.90;;;;;;4919097;28;20151;-86
2021/12/26 03:46:55;;;;;;;4.90;2.10;;;-6.20;99.90;;;;;;4920735;28;20047;-86
2021/12/26 03:49:21;;;;;;;6.22;1.92;;;-6.20;99.90;;;;;;4912552;28;20401;-86
2021/12/26 03:51:46;;;;;;;5.82;1.98;;;-6.20;99.90;;;;;;4926241;28;20046;-86
2021/12/26 03:54:13;;;;;;;7.80;2.33;;;-6.20;99.90;;;;;;4918664;29;20050;-86
2021/12/26 03:56:39;;;;;;;8.52;1.92;;;-6.20;99.90;;;;;;4918997;28;20059;-86
2021/12/26 03:59:05;;;;;;;8.57;2.30;;;-6.20;99.90;;;;;;4916632;28;20507;-86
2021/12/26 04:01:30;;;;;;;6.03;1.98;;;-6.20;99.90;;;;;;4919945;28;21067;-86
2021/12/26 04:03:56;;;;;;;7.72;2.05;;;-6.20;99.90;;;;;;4913971;28;20493;-86
2021/12/26 04:06:22;;;;;;;6.72;2.00;;;-6.20;99.90;;;;;;4916063;28;20068;-86
2021/12/26 04:08:48;;;;;;;6.57;2.08;;;-6.20;99.90;;;;;;4942905;28;20522;-86
2021/12/26 04:11:13;;;;;;;6.65;1.95;;;-6.30;99.90;;;;;;4939526;28;20410;-85
2021/12/26 04:13:39;;;;;;;6.88;2.15;;;-6.20;99.90;;;;;;4939074;28;20516;-86
2021/12/26 04:16:05;;;;;;;4.63;2.08;;;-6.30;99.90;;;;;;4951776;28;20043;-85
2021/12/26 04:18:31;;;;;;;6.40;2.25;;;-6.20;99.90;;;;;;4915584;28;20063;-86
2021/12/26 04:20:56;;;;;;;6.65;2.20;;;-6.20;99.90;;;;;;4959062;28;20055;-86
2021/12/26 04:23:22;;;;;;;7.03;2.25;;;-6.30;99.90;;;;;;4915317;28;20047;-86
2021/12/26 04:25:48;;;;;;;6.43;2.67;;;-6.30;99.90;;;;;;4929153;28;20795;-86
2021/12/26 04:28:17;;;;;;;5.05;2.22;;;-6.30;99.90;;;;;;4909875;28;20122;-86
2021/12/26 04:30:44;;;;;;;5.63;1.80;;;-6.30;99.90;;;;;;4922921;28;20065;-86
2021/12/26 04:33:10;;;;;;;5.63;1.92;;;-6.30;99.90;;;;;;4917326;28;20055;-86
2021/12/26 04:35:36;;;;;;;6.20;2.58;;;-6.20;99.90;;;;;;4915712;28;20058;-86
2021/12/26 04:38:02;;;;;;;6.60;2.42;;;-6.20;99.90;;;;;;4920297;28;20043;-86
2021/12/26 04:40:28;;;;;;;7.88;2.33;;;-6.20;99.90;;;;;;4938840;28;20387;-86
2021/12/26 04:42:54;;;;;;;5.07;2.22;;;-6.20;99.90;;;;;;4922032;28;20043;-86
2021/12/26 04:45:20;;;;;;;6.18;2.70;;;-6.20;99.90;;;;;;4914697;28;20057;-87
2021/12/26 04:47:45;;;;;;;6.25;2.17;;;-6.20;99.90;;;;;;4916233;29;20138;-86
2021/12/26 04:50:17;;;;;;;6.85;2.63;;;-6.20;99.90;;;;;;4933539;28;20055;-85
2021/12/26 04:52:44;;;;;;;5.32;2.10;;;-6.20;99.90;;;;;;4936846;28;20199;-86
2021/12/26 04:55:11;;;;;;;4.72;2.05;;;-6.20;99.90;;;;;;4916846;28;20051;-86
2021/12/26 04:57:37;;;;;;;6.90;2.88;;;-6.20;99.90;;;;;;4939594;28;20047;-86
2021/12/26 05:00:08;;;;;;;6.22;2.30;;;-6.20;99.90;;;;;;4920727;28;20055;-86
2021/12/26 05:02:36;;;;;;;6.15;2.00;;;-6.20;99.90;;;;;;4940295;28;20145;-86
2021/12/26 05:05:03;;;;;;;7.25;2.20;;;-6.10;99.90;;;;;;4919168;29;20114;-86
2021/12/26 05:07:29;;;;;;;6.03;2.30;;;-6.10;99.90;;;;;;4932299;28;20055;-86
2021/12/26 05:09:54;;;;;;;6.68;2.30;;;-6.10;99.90;;;;;;4932052;28;20052;-86
2021/12/26 05:12:22;;;;;;;6.68;2.45;;;-6.10;99.90;;;;;;4923629;28;20134;-86
2021/12/26 05:14:48;;;;;;;5.93;2.35;;;-6.20;99.90;;;;;;4933880;28;20446;-86
2021/12/26 05:17:13;;;;;;;8.02;2.55;;;-6.20;99.90;;;;;;4918357;28;20041;-86
2021/12/26 05:19:39;;;;;;;5.40;2.03;;;-6.20;99.90;;;;;;4937852;28;20043;-86
2021/12/26 05:22:05;;;;;;;5.70;2.03;;;-6.20;99.90;;;;;;4944495;28;20085;-86
2021/12/26 05:24:30;;;;;;;5.65;2.17;;;-6.20;99.90;;;;;;4915177;28;20415;-87
2021/12/26 05:26:56;;;;;;;8.15;2.92;;;-6.20;99.90;;;;;;4918014;29;20339;-86
2021/12/26 05:29:22;;;;;;;6.53;2.63;;;-6.20;99.90;;;;;;4938118;28;20046;-86
2021/12/26 05:31:47;;;;;;;6.55;2.30;;;-6.20;99.90;;;;;;4934949;28;20043;-86
2021/12/26 05:34:13;;;;;;;8.85;2.22;;;-6.20;99.90;;;;;;4937692;28;20039;-86
2021/12/26 05:36:39;;;;;;;6.63;2.30;;;-6.20;99.90;;;;;;4917020;28;20154;-86
2021/12/26 05:39:04;;;;;;;6.47;2.00;;;-6.20;99.90;;;;;;4930702;29;20054;-86
2021/12/26 05:41:32;;;;;;;5.90;2.30;;;-6.20;99.90;;;;;;4912887;28;20085;-86
2021/12/26 05:43:59;;;;;;;6.45;2.50;;;-6.20;99.90;;;;;;4938067;28;20047;-86
2021/12/26 05:46:24;;;;;;;5.90;2.25;;;-6.20;99.90;;;;;;4939695;28;20051;-86
2021/12/26 05:48:51;;;;;;;5.95;2.38;;;-6.20;99.90;;;;;;4923343;28;20039;-86
2021/12/26 05:51:16;;;;;;;6.05;2.00;;;-6.20;99.90;;;;;;4914194;28;20467;-86
2021/12/26 05:53:43;;;;;;;5.05;2.13;;;-6.20;99.90;;;;;;4910817;28;20154;-86
2021/12/26 05:56:08;;;;;;;6.70;2.50;;;-6.20;99.90;;;;;;4931210;28;20057;-86
2021/12/26 05:58:34;;;;;;;6.70;2.47;;;-6.20;99.90;;;;;;4920467;28;20129;-86
2021/12/26 06:01:00;;;;;;;6.88;2.15;;;-6.20;99.90;;;;;;4933875;28;20034;-86
2021/12/26 06:03:26;;;;;;;5.65;2.10;;;-6.20;99.90;;;;;;4940424;28;20039;-86
2021/12/26 06:05:53;;;;;;;5.47;2.17;;;-6.20;99.90;;;;;;4933673;28;20062;-86
2021/12/26 06:08:21;;;;;;;5.13;2.42;;;-6.20;99.90;;;;;;4937359;28;20047;-86
2021/12/26 06:10:48;;;;;;;6.25;2.45;;;-6.20;99.90;;;;;;4931559;28;20044;-86
2021/12/26 06:13:13;;;;;;;4.43;1.83;;;-6.20;99.90;;;;;;4927877;28;20433;-86
2021/12/26 06:15:39;;;;;;;6.00;2.45;;;-6.20;99.90;;;;;;4932742;28;20091;-86
2021/12/26 06:18:04;;;;;;;5.50;2.08;;;-6.30;99.90;;;;;;4927203;28;20276;-86
2021/12/26 06:20:30;;;;;;;7.22;2.47;;;-6.20;99.90;;;;;;4932859;29;20044;-86
2021/12/26 06:22:55;;;;;;;6.85;2.28;;;-6.20;99.90;;;;;;4935411;28;20526;-86
2021/12/26 06:25:21;;;;;;;6.32;2.35;;;-6.30;99.90;;;;;;4931566;28;20038;-88
2021/12/26 06:27:47;;;;;;;7.55;3.05;;;-6.30;99.90;;;;;;4916164;28;20106;-86
2021/12/26 06:30:14;;;;;;;6.97;2.33;;;-6.30;99.90;;;;;;4934458;28;20047;-86
2021/12/26 06:32:40;;;;;;;8.30;2.33;;;-6.30;99.90;;;;;;4932652;29;20036;-86
2021/12/26 06:35:08;;;;;;;6.55;2.58;;;-6.30;99.90;;;;;;4914322;28;20047;-86
2021/12/26 06:37:34;;;;;;;6.50;2.20;;;-6.30;99.90;;;;;;4925985;28;20043;-86
2021/12/26 06:40:00;;;;;;;5.82;2.17;;;-6.30;99.90;;;;;;4939982;28;20400;-87
2021/12/26 06:42:28;;;;;;;6.10;2.58;;;-6.20;99.90;;;;;;4924191;29;20039;-86
2021/12/26 06:44:54;;;;;;;5.45;2.30;;;-6.30;99.90;;;;;;4918626;28;20075;-85
2021/12/26 06:47:19;;;;;;;5.57;2.22;;;-6.30;99.90;;;;;;4930682;28;20449;-86
2021/12/26 06:49:45;;;;;;;5.25;2.22;;;-6.20;99.90;;;;;;4926314;28;20057;-86
2021/12/26 06:52:11;;;;;;;7.70;2.45;;;-6.30;99.90;;;;;;4911216;29;20392;-86
2021/12/26 06:54:40;;;;;;;5.88;2.40;;;-6.30;99.90;;;;;;4924408;28;20038;-86
2021/12/26 06:57:06;;;;;;;6.43;2.40;;;-6.30;99.90;;;;;;4935057;28;20051;-88
2021/12/26 06:59:32;;;;;;;8.25;2.78;;;-6.30;99.90;;;;;;4929707;28;21575;-88
2021/12/26 07:01:57;;;;;;;6.70;2.85;;;-6.30;99.90;;;;;;4929144;28;20050;-86
2021/12/26 07:04:23;;;;;;;6.85;2.67;;;-6.30;99.90;;;;;;4914672;28;20419;-89
2021/12/26 07:06:49;;;;;;;8.15;2.63;;;-6.30;99.90;;;;;;4914790;28;20051;-87
2021/12/26 07:09:14;;;;;;;6.45;2.65;;;-6.30;99.90;;;;;;4922934;28;20054;-86
2021/12/26 07:11:41;;;;;;;7.80;3.70;;;-6.30;99.90;;;;;;4939696;28;21108;-88
2021/12/26 07:14:07;;;;;;;8.25;2.70;;;-6.30;99.90;;;;;;4942941;29;20079;-88
2021/12/26 07:16:32;;;;;;;7.05;2.97;;;-6.20;99.90;;;;;;4929954;28;20039;-89
2021/12/26 07:18:58;;;;;;;7.82;3.22;;;-6.30;99.90;;;;;;4947554;28;20086;-88
2021/12/26 07:21:24;;;;;;;8.52;3.28;;;-6.20;99.90;;;;;;4935353;28;20697;-88
2021/12/26 07:23:49;;;;;;;6.80;2.70;;;-6.30;99.90;;;;;;4918107;28;20091;-87
2021/12/26 07:26:15;;;;;;;6.13;2.83;;;-6.20;99.90;;;;;;4929385;28;20113;-88
2021/12/26 07:28:41;;;;;;;7.03;2.80;;;-6.20;99.90;;;;;;4920566;28;20427;-87
2021/12/26 07:31:07;;;;;;;7.38;3.20;;;-6.30;99.90;;;;;;4944941;28;20043;-87
2021/12/26 07:33:33;;;;;;;6.50;2.97;;;-6.20;99.90;;;;;;4934708;28;20500;-88
2021/12/26 07:35:58;;;;;;;7.90;2.95;;;-6.20;99.90;;;;;;4950256;28;20046;-88
2021/12/26 07:38:24;;;;;;;7.47;3.00;;;-6.20;99.90;;;;;;4924141;28;20038;-88
2021/12/26 07:40:50;;;;;;;8.85;3.72;;;-6.20;99.90;;;;;;4935380;28;20039;-89
2021/12/26 07:43:15;;;;;;;10.80;3.80;;;-6.20;99.90;;;;;;4943053;28;20065;-88
2021/12/26 07:45:41;;;;;;;7.68;2.80;;;-6.20;99.90;;;;;;4943911;28;20471;-89
2021/12/26 07:48:07;;;;;;;8.02;3.40;;;-6.20;99.90;;;;;;4941189;29;20054;-87
2021/12/26 07:50:33;;;;;;;7.97;3.17;;;-6.20;99.90;;;;;;4929793;28;20043;-87
2021/12/26 07:53:04;;;;;;;6.78;3.08;;;-6.10;99.90;;;;;;4934931;28;20528;-88
2021/12/26 07:55:30;;;;;;;8.68;3.65;;;-6.10;99.90;;;;;;4915490;28;20043;-88
2021/12/26 07:57:56;;;;;;;6.97;3.13;;;-6.10;99.90;;;;;;4938763;28;20153;-89
2021/12/26 08:00:22;;;;;;;8.15;3.17;;;-6.10;99.90;;;;;;4924279;28;20043;-88
2021/12/26 08:02:49;;;;;;;9.77;3.40;;;-6.10;99.90;;;;;;4916684;28;20074;-88
2021/12/26 08:05:16;;;;;;;10.00;3.53;;;-6.10;99.90;;;;;;4938516;28;20070;-90
2021/12/26 08:07:42;;;;;;;8.88;3.90;;;-5.90;99.90;;;;;;4936150;29;20111;-90
2021/12/26 08:10:08;;;;;;;7.97;3.67;;;-6.00;99.90;;;;;;4947400;28;20126;-89
2021/12/26 08:12:34;;;;;;;8.70;4.03;;;-6.00;99.90;;;;;;4919088;28;20079;-89
2021/12/26 08:15:01;;;;;;;7.90;3.58;;;-5.90;99.90;;;;;;4917322;28;20440;-88
2021/12/26 08:17:28;;;;;;;9.20;3.47;;;-6.00;99.90;;;;;;4931761;29;20043;-88
2021/12/26 08:19:54;;;;;;;9.05;4.15;;;-5.90;99.90;;;;;;4927362;28;20054;-88
2021/12/26 08:22:20;;;;;;;10.98;4.03;;;-5.90;99.90;;;;;;4915061;28;20404;-88
2021/12/26 08:24:46;;;;;;;10.55;4.30;;;-5.80;99.90;;;;;;4931823;28;20049;-89
2021/12/26 08:27:11;;;;;;;7.85;3.80;;;-5.90;99.90;;;;;;4918108;28;20047;-90
2021/12/26 08:29:37;;;;;;;9.00;3.88;;;-5.80;99.90;;;;;;4913231;29;20102;-91
2021/12/26 08:32:04;;;;;;;8.80;3.92;;;-5.80;99.90;;;;;;4913375;28;20074;-90
2021/12/26 08:34:29;;;;;;;8.70;4.10;;;-5.80;99.90;;;;;;4929255;28;20054;-90
2021/12/26 08:37:01;;;;;;;8.75;3.65;;;-5.70;99.90;;;;;;4915042;28;20047;-89
2021/12/26 08:39:30;;;;;;;9.70;3.92;;;-5.70;99.90;;;;;;4916596;28;20046;-91
2021/12/26 08:41:56;;;;;;;7.88;3.70;;;-5.60;99.90;;;;;;4934733;28;20047;-90
2021/12/26 08:44:22;;;;;;;10.23;4.05;;;-5.60;99.90;;;;;;4917091;28;20043;-90
2021/12/26 08:46:48;;;;;;;8.95;3.90;;;-5.50;99.90;;;;;;4934042;28;20043;-89
2021/12/26 08:49:15;;;;;;;8.73;3.97;;;-5.50;99.90;;;;;;4939461;28;20463;-90
2021/12/26 08:51:42;;;;;;;9.90;4.13;;;-5.40;99.90;;;;;;4915968;28;20463;-89
2021/12/26 08:54:09;;;;;;;8.98;3.95;;;-5.40;99.90;;;;;;4949548;28;20058;-91
2021/12/26 08:56:35;;;;;;;9.77;4.03;;;-5.30;99.90;;;;;;4935156;28;20039;-90
2021/12/26 08:59:01;;;;;;;8.85;3.78;;;-5.30;99.90;;;;;;4941058;28;20042;-92
2021/12/26 09:01:27;;;;;;;9.18;4.38;;;-5.20;99.90;;;;;;4926467;28;20098;-91
2021/12/26 09:03:53;;;;;;;8.88;4.05;;;-5.20;99.90;;;;;;4917155;28;20042;-90
2021/12/26 09:06:18;;;;;;;8.50;3.65;;;-5.10;99.90;;;;;;4917417;28;20082;-89
2021/12/26 09:08:44;;;;;;;9.07;3.80;;;-5.00;99.90;;;;;;4931574;29;20480;-90
2021/12/26 09:11:10;;;;;;;8.75;4.07;;;-5.00;99.90;;;;;;4943075;28;20086;-89
2021/12/26 09:13:36;;;;;;;9.30;3.78;;;-4.90;99.90;;;;;;4936424;28;20070;-91
2021/12/26 09:16:02;;;;;;;16.90;5.20;;;-4.80;99.90;;;;;;4929172;28;20040;-91
2021/12/26 09:18:28;;;;;;;11.77;5.38;;;-4.80;99.90;;;;;;4938118;28;20027;-90
2021/12/26 09:20:54;;;;;;;12.30;4.75;;;-4.70;99.90;;;;;;4941835;28;20122;-90
2021/12/26 09:23:20;;;;;;;8.55;4.15;;;-4.70;99.90;;;;;;4926460;28;20078;-90
2021/12/26 09:25:46;;;;;;;9.93;4.43;;;-4.70;99.90;;;;;;4946803;28;20081;-90
2021/12/26 09:28:12;;;;;;;8.85;4.28;;;-4.60;99.90;;;;;;4938968;28;20087;-91
2021/12/26 09:30:37;;;;;;;8.88;4.38;;;-4.60;99.90;;;;;;4946346;28;20050;-91
2021/12/26 09:33:04;;;;;;;9.15;4.40;;;-4.50;99.90;;;;;;4932183;28;20069;-90
2021/12/26 09:35:31;;;;;;;10.93;4.38;;;-4.40;99.90;;;;;;4917934;28;20051;-93
2021/12/26 09:37:57;;;;;;;11.07;4.53;;;-4.30;99.90;;;;;;4933973;28;20039;-94
2021/12/26 09:40:23;;;;;;;11.32;4.32;;;-4.30;99.90;;;;;;4919409;28;20122;-93
2021/12/26 09:42:51;;;;;;;8.73;4.10;;;-4.20;99.90;;;;;;4948246;28;20488;-92
2021/12/26 09:45:18;;;;;;;8.35;4.32;;;-4.20;99.90;;;;;;4921266;28;20114;-92
2021/12/26 09:47:45;;;;;;;11.93;4.82;;;-4.10;99.90;;;;;;4944797;28;20121;-92
2021/12/26 09:50:13;;;;;;;10.75;4.53;;;-4.10;99.90;;;;;;4921910;28;20047;-93
2021/12/26 09:52:44;;;;;;;9.45;4.20;;;-4.00;99.90;;;;;;4931331;28;20051;-94
2021/12/26 09:55:10;;;;;;;8.98;4.35;;;-4.00;99.90;;;;;;4941813;28;20046;-93
2021/12/26 09:57:36;;;;;;;10.35;4.15;;;-3.90;99.90;;;;;;4940077;28;20043;-90
2021/12/26 10:00:18;;;;;;;9.38;4.20;;;-3.90;99.90;;;;;;4931756;29;20054;-91
2021/12/26 10:02:43;;;;;;;9.85;4.70;;;-3.80;99.90;;;;;;4917375;28;20050;-93
2021/12/26 10:05:09;;;;;;;8.98;4.53;;;-3.80;99.90;;;;;;4937200;28;20059;-93
2021/12/26 10:07:35;;;;;;;9.45;4.55;;;-3.70;99.90;;;;;;4933119;29;20059;-91
2021/12/26 10:10:07;;;;;;;9.05;4.47;;;-3.60;99.90;;;;;;4926075;28;20066;-94
2021/12/26 10:12:40;;;;;;;16.13;4.60;;;-3.60;99.90;;;;;;4928673;28;20046;-92
2021/12/26 10:15:07;;;;;;;9.50;4.50;;;-3.50;99.90;;;;;;4941825;28;20444;-91
2021/12/26 10:17:33;;;;;;;9.18;4.20;;;-3.40;99.90;;;;;;4923458;28;20043;-91
2021/12/26 10:20:06;;;;;;;10.88;4.88;;;-3.40;99.90;;;;;;4946568;28;20077;-90
2021/12/26 10:22:32;;;;;;;10.23;4.85;;;-3.40;99.90;;;;;;4922745;29;20050;-93
2021/12/26 10:24:58;;;;;;;10.75;5.28;;;-3.30;99.90;;;;;;4935866;28;20051;-92
2021/12/26 10:27:29;;;;;;;11.02;5.15;;;-3.30;99.90;;;;;;4933325;28;20171;-92
2021/12/26 10:29:57;;;;;;;9.40;4.53;;;-3.30;99.90;;;;;;4943115;28;20202;-91
2021/12/26 10:32:29;;;;;;;9.43;4.15;;;-3.20;99.90;;;;;;4914498;28;20039;-91
2021/12/26 10:35:00;;;;;;;10.70;4.53;;;-3.20;99.90;;;;;;4921669;28;20528;-91
2021/12/26 10:37:34;;;;;;;10.15;5.22;;;-3.10;99.90;;;;;;4915955;28;20034;-90
2021/12/26 10:40:04;;;;;;;10.10;4.70;;;-3.10;99.90;;;;;;4923044;28;20040;-90
2021/12/26 10:42:35;;;;;;;9.85;5.05;;;-3.00;99.90;;;;;;4931598;28;20062;-92
2021/12/26 10:45:06;;;;;;;10.38;4.90;;;-3.00;99.90;;;;;;4932720;29;20043;-91
2021/12/26 10:47:34;;;;;;;8.40;4.65;;;-2.90;99.90;;;;;;4930923;28;20043;-91
2021/12/26 10:50:11;;;;;;;10.07;4.78;;;-2.90;99.90;;;;;;4939567;28;20142;-94
2021/12/26 10:52:39;;;;;;;11.50;5.50;;;-2.80;99.90;;;;;;4940188;28;20416;-91
2021/12/26 10:55:12;;;;;;;11.98;5.25;;;-2.80;99.90;;;;;;4944945;28;20047;-93
2021/12/26 10:57:43;;;;;;;10.48;5.07;;;-2.70;99.90;;;;;;4925757;28;20043;-90
2021/12/26 11:00:21;;;;;;;9.82;5.13;;;-2.70;99.90;;;;;;4917106;28;20043;-91
2021/12/26 11:02:50;;;;;;;9.90;4.30;;;-2.60;99.90;;;;;;4918194;28;20153;-92
2021/12/26 11:05:19;;;;;;;9.73;4.55;;;-2.60;99.90;;;;;;4918612;28;20143;-93
2021/12/26 11:07:49;;;;;;;10.10;5.07;;;-2.60;99.90;;;;;;4920941;28;20488;-91
2021/12/26 11:10:19;;;;;;;9.82;4.55;;;-2.50;99.90;;;;;;4956665;28;20093;-90
2021/12/26 11:12:50;;;;;;;9.85;4.95;;;-2.50;99.90;;;;;;4939245;28;20047;-90
2021/12/26 11:15:19;;;;;;;9.57;5.18;;;-2.30;99.90;;;;;;4928116;28;20035;-89
2021/12/26 11:17:55;;;;;;;9.27;4.70;;;-2.30;99.90;;;;;;4936754;28;20052;-90
2021/12/26 11:20:32;;;;;;;10.10;4.75;;;-2.20;99.90;;;;;;4939897;28;20043;-91
2021/12/26 11:22:59;;;;;;;10.88;5.47;;;-2.20;99.90;;;;;;4947637;28;20123;-91
2021/12/26 11:25:26;;;;;;;9.82;5.00;;;-2.10;99.90;;;;;;4926147;28;20047;-89
2021/12/26 11:27:52;;;;;;;11.07;5.28;;;-2.10;99.90;;;;;;4914102;28;20047;-93
2021/12/26 11:30:19;;;;;;;9.60;5.03;;;-2.00;99.90;;;;;;4938762;28;20066;-90
2021/12/26 11:32:46;;;;;;;11.15;5.35;;;-2.00;99.90;;;;;;4942393;28;20090;-91
2021/12/26 11:35:13;;;;;;;10.63;5.22;;;-1.90;99.90;;;;;;4916020;28;20044;-91
2021/12/26 11:37:40;;;;;;;11.38;5.47;;;-1.90;99.90;;;;;;4939684;28;20047;-92
2021/12/26 11:40:10;;;;;;;10.30;4.97;;;-1.80;99.90;;;;;;4933645;28;20054;-90
2021/12/26 11:42:54;;;;;;;10.87;4.80;;;-1.80;99.90;;;;;;4932767;29;20090;-89
2021/12/26 11:45:29;;;;;;;11.45;5.45;;;-1.70;99.90;;;;;;4922823;28;20313;-89
2021/12/26 11:48:26;;;;;;;9.50;4.82;;;-1.60;99.90;;;;;;4925334;28;20137;-90
2021/12/26 11:51:19;;;;;;;9.02;5.03;;;-1.60;99.90;;;;;;4940861;28;20424;-90
2021/12/26 11:54:32;;;;;;;10.77;5.63;;;-1.50;99.90;;;;;;4945591;28;20047;-90
2021/12/26 11:57:01;;;;;;;10.85;5.28;;;-1.50;99.90;;;;;;4936884;28;20049;-89
2021/12/26 11:59:57;;;;;;;8.98;5.22;;;-1.40;99.90;;;;;;4914755;28;20043;-89
2021/12/26 12:02:46;;;;;;;10.60;5.70;;;-1.30;99.90;;;;;;4949007;28;20046;-89
2021/12/26 12:05:22;;;;;;;10.10;5.35;;;-1.30;99.90;;;;;;4928568;28;20047;-90
2021/12/26 12:08:03;;;;;;;10.77;5.50;;;-1.30;99.90;;;;;;4942840;28;20050;-89
2021/12/26 12:10:55;;;;;;;11.32;5.22;;;-1.20;99.90;;;;;;4924982;28;20051;-90
2021/12/26 12:13:26;;;;;;;10.38;5.40;;;-1.20;99.90;;;;;;4933563;28;20043;-89
2021/12/26 12:15:56;;;;;;;11.30;5.68;;;-1.20;99.90;;;;;;4929830;28;20047;-89
2021/12/26 12:18:27;;;;;;;10.13;5.28;;;-1.10;99.90;;;;;;4916229;29;20035;-88
2021/12/26 12:21:22;;;;;;;;;;;-1.10;99.90;;;;;;4938246;28;21356;-88
2021/12/26 12:24:16;;;;;;;10.93;5.80;;;-1.10;99.90;;;;;;4896693;28;19926;-88
2021/12/26 12:26:55;;;;;;;10.07;5.30;;;-1.00;99.90;;;;;;4916154;28;20051;-90
2021/12/26 12:29:24;;;;;;;9.75;4.85;;;-1.00;99.90;;;;;;4943319;28;20053;-90
2021/12/26 12:32:08;;;;;;;10.73;5.75;;;-1.00;99.90;;;;;;4921317;28;20130;-90
2021/12/26 12:35:05;;;;;;;12.70;5.72;;;-0.90;99.90;;;;;;4946869;28;20049;-92
2021/12/26 12:37:33;;;;;;;11.10;6.32;;;-0.90;99.90;;;;;;4916519;28;20047;-90
2021/12/26 12:40:08;;;;;;;10.57;5.57;;;-0.90;99.90;;;;;;4949248;28;20047;-91
2021/12/26 12:42:35;;;;;;;10.63;5.93;;;-0.80;99.90;;;;;;4925065;29;20051;-93
2021/12/26 12:45:01;;;;;;;11.32;5.47;;;-0.80;99.90;;;;;;4925670;28;20047;-91
2021/12/26 12:47:27;;;;;;;9.68;5.00;;;-0.80;99.90;;;;;;4940328;28;20137;-91
2021/12/26 12:49:55;;;;;;;9.73;5.32;;;-0.80;99.90;;;;;;4929071;28;20173;-90
2021/12/26 12:52:38;;;;;;;10.65;5.47;;;-0.80;99.90;;;;;;4929408;29;20091;-90
2021/12/26 12:55:10;;;;;;;10.95;5.78;;;-0.70;99.90;;;;;;4949427;28;20632;-92